Nearby METAR Reports

This page may be slow to load as it queries the National Weather Service for data.

KBIS - Bismarck, North Dakota, USA
Distance from station: S 10mi, 15km
Updated: Wed, 22-Sep-2021 2:52pm CDT
Clear
Clear
 Wind from S
Wind: S 14 mph , 22 km/h, Gust: 30 mph , 48 km/h
Temperature: 79°F , 26°C
Dew Point: 30°F , -1°C
Humidity: 17%
Barometer: 30.04 inHg , 1017.3 hPa
Clouds: Clear
Visibility: 10 miles , 16 km
2021/09/22 19:52 KBIS 221952Z 19012G26KT 10SM CLR 26/M01 A3004 RMK AO2 PK WND 16026/1949 SLP170 T02611011
KDIK - Dickinson, North Dakota, USA
Distance from station: W 95mi, 154km
Updated: Wed, 22-Sep-2021 2:56pm CDT
Clear
Clear
 Wind from SW
Wind: SW 9 mph , 15 km/h, Gust: 18 mph , 30 km/h
Temperature: 82°F , 28°C
Dew Point: 30°F , -1°C
Humidity: 15%
Barometer: 29.99 inHg , 1015.6 hPa
Clouds: Clear
Visibility: 10 miles , 16 km
2021/09/22 19:56 KDIK 221956Z AUTO 22008G16KT 10SM CLR 28/M01 A2999 RMK AO2 SLP145 T02831006
 
KXWA - Williston, North Dakota, USA
Distance from station: NNW 2mi, 2km
Updated: Wed, 22-Sep-2021 2:51pm CDT
Clear
Clear
 Wind from SW
Wind: SW 13 mph , 20 km/h, Gust: 21 mph , 33 km/h
Temperature: 79°F , 26°C
Dew Point: 36°F , 2°C
Humidity: 21%
Barometer: 29.95 inHg , 1014.2 hPa
Clouds: Clear
Visibility: 10 miles , 16 km
2021/09/22 19:51 KXWA 221951Z AUTO 23011G18KT 10SM CLR 26/02 A2995 RMK AO2 SLP144 T02560017
KFAR - Fargo, North Dakota, USA
Distance from station: NNW 4mi, 7km
Updated: Wed, 22-Sep-2021 2:53pm CDT
Clear
Clear
 Wind from SSW
Wind: SSW 18 mph , 30 km/h, Gust: 26 mph , 43 km/h
Temperature: 75°F , 24°C
Dew Point: 39°F , 4°C
Humidity: 27%
Barometer: 30.12 inHg , 1020 hPa
Clouds: Clear
Visibility: 10 miles , 16 km
2021/09/22 19:53 KFAR 221953Z AUTO 20016G23KT 10SM CLR 24/04 A3012 RMK AO2 PK WND 22027/1916 SLP200 T02390039
 
KGFK - Grand Forks, North Dakota, USA
Distance from station: NNW 76mi, 123km
Updated: Wed, 22-Sep-2021 2:53pm CDT
Few Clouds
Few Clouds
 Wind from SSW
Wind: SSW 21 mph , 33 km/h, Gust: 31 mph , 50 km/h
Temperature: 77°F , 25°C
Dew Point: 39°F , 4°C
Humidity: 26%
Barometer: 30.05 inHg , 1017.6 hPa
Clouds: Few Clouds
Visibility: 10 miles , 16 km
Cloud details: Few Clouds 25000 ft
2021/09/22 19:53 KGFK 221953Z 20018G27KT 10SM FEW250 25/04 A3005 RMK AO2 PK WND 18029/1932 SLP177 FU PLUME W T02500039
KMOT - Minot, North Dakota, USA
Distance from station: E 109mi, 175km
Updated: Wed, 22-Sep-2021 2:54pm CDT
Clear
Clear
 Wind from S
Wind: S 12 mph , 19 km/h, Gust: 23 mph , 37 km/h
Temperature: 81°F , 27°C
Dew Point: 36°F , 2°C
Humidity: 20%
Barometer: 29.95 inHg , 1014.2 hPa
Clouds: Clear
Visibility: 10 miles , 16 km
2021/09/22 19:54 KMOT 221954Z 18010G20KT 10SM CLR 27/02 A2995 RMK AO2 SLP140 T02720017